createdAt,value
2018-09-23T00:02:12.669Z,11.50
2018-09-23T00:04:40.985Z,11.50
2018-09-23T00:07:09.305Z,11.40
2018-09-23T00:09:37.617Z,11.40
2018-09-23T00:12:06.022Z,11.40
2018-09-23T00:14:34.381Z,11.40
2018-09-23T00:17:02.754Z,11.40
2018-09-23T00:19:31.693Z,11.40
2018-09-23T00:22:00.596Z,11.40
2018-09-23T00:24:28.832Z,11.40
2018-09-23T00:26:57.158Z,11.40
2018-09-23T00:29:30.764Z,11.40
2018-09-23T00:31:59.484Z,11.40
2018-09-23T00:34:27.805Z,11.40
2018-09-23T00:36:56.154Z,11.40
2018-09-23T00:39:25.440Z,11.50
2018-09-23T00:41:53.768Z,11.50
2018-09-23T00:44:22.126Z,11.50
2018-09-23T00:46:50.462Z,11.60
2018-09-23T00:49:18.798Z,11.60
2018-09-23T00:51:47.117Z,11.50
2018-09-23T00:54:15.476Z,11.50
2018-09-23T00:56:43.803Z,11.50
2018-09-23T00:59:12.124Z,11.50
2018-09-23T01:01:40.452Z,11.60
2018-09-23T01:04:09.521Z,11.60
2018-09-23T01:06:38.613Z,11.60
2018-09-23T01:09:08.360Z,11.60
2018-09-23T01:11:36.838Z,11.60
2018-09-23T01:14:05.209Z,11.70
2018-09-23T01:16:33.524Z,11.60
2018-09-23T01:19:01.869Z,11.60
2018-09-23T01:21:30.279Z,11.70
2018-09-23T01:23:58.612Z,11.70
2018-09-23T01:26:26.961Z,11.60
2018-09-23T01:28:55.340Z,11.60
2018-09-23T01:31:23.647Z,11.60
2018-09-23T01:33:51.996Z,11.60
2018-09-23T01:36:20.334Z,11.70
2018-09-23T01:38:48.645Z,11.70
2018-09-23T01:41:16.984Z,11.70
2018-09-23T01:43:45.315Z,11.60
2018-09-23T01:46:13.888Z,11.60
2018-09-23T01:48:42.214Z,11.70
2018-09-23T01:51:10.533Z,11.70
2018-09-23T01:53:39.651Z,11.70
2018-09-23T01:56:07.981Z,11.80
2018-09-23T01:58:36.305Z,11.70
2018-09-23T02:01:04.608Z,11.70
2018-09-23T02:03:32.944Z,11.70
2018-09-23T02:06:01.251Z,11.70
2018-09-23T02:08:30.217Z,11.70
2018-09-23T02:10:58.561Z,11.80
2018-09-23T02:13:26.877Z,11.80
2018-09-23T02:15:55.225Z,11.70
2018-09-23T02:18:23.517Z,11.80
2018-09-23T02:20:51.854Z,11.80
2018-09-23T02:23:20.161Z,11.80
2018-09-23T02:25:49.261Z,11.70
2018-09-23T02:28:17.577Z,11.80
2018-09-23T02:30:45.898Z,11.80
2018-09-23T02:33:14.202Z,11.80
2018-09-23T02:35:42.520Z,11.80
2018-09-23T02:38:10.833Z,11.80
2018-09-23T02:40:39.192Z,11.80
2018-09-23T02:43:07.513Z,11.80
2018-09-23T02:45:35.825Z,11.80
2018-09-23T02:48:04.161Z,11.80
2018-09-23T02:50:32.533Z,11.80
2018-09-23T02:53:00.861Z,11.80
2018-09-23T02:55:29.190Z,11.80
2018-09-23T02:57:57.525Z,11.80
2018-09-23T03:00:25.833Z,11.80
2018-09-23T03:02:54.157Z,11.80
2018-09-23T03:05:22.477Z,11.80
2018-09-23T03:07:50.828Z,11.70
2018-09-23T03:10:19.149Z,11.80
2018-09-23T03:12:47.485Z,11.70
2018-09-23T03:15:15.800Z,11.70
2018-09-23T03:17:44.161Z,11.70
2018-09-23T03:20:12.472Z,11.70
2018-09-23T03:22:41.325Z,11.70
2018-09-23T03:25:09.633Z,11.70
2018-09-23T03:27:37.950Z,11.70
2018-09-23T03:30:06.310Z,11.70
2018-09-23T03:32:34.656Z,11.70
2018-09-23T03:35:03.011Z,11.80
2018-09-23T03:37:31.369Z,11.70
2018-09-23T03:40:00.058Z,11.70
2018-09-23T03:42:28.406Z,11.80
2018-09-23T03:44:56.712Z,11.80
2018-09-23T03:47:25.024Z,11.80
2018-09-23T03:49:53.328Z,11.70
2018-09-23T03:52:21.665Z,11.70
2018-09-23T03:54:49.977Z,11.70
2018-09-23T03:57:18.680Z,11.70
2018-09-23T03:59:47.004Z,11.70
2018-09-23T04:02:15.329Z,11.70
2018-09-23T04:04:43.658Z,11.70
2018-09-23T04:07:11.963Z,11.70
2018-09-23T04:09:40.273Z,11.70
2018-09-23T04:12:08.653Z,11.70
2018-09-23T04:14:36.960Z,11.70
2018-09-23T04:17:05.536Z,11.70
2018-09-23T04:19:33.893Z,11.70
2018-09-23T04:22:02.228Z,11.70
2018-09-23T04:24:31.397Z,11.70
2018-09-23T04:26:59.713Z,11.60
2018-09-23T04:29:28.107Z,11.70
2018-09-23T04:31:56.455Z,11.70
2018-09-23T04:34:24.861Z,11.70
2018-09-23T04:36:53.145Z,11.70
2018-09-23T04:39:22.152Z,11.70
2018-09-23T04:41:50.493Z,11.60
2018-09-23T04:44:18.808Z,11.70
2018-09-23T04:46:47.186Z,11.70
2018-09-23T04:49:15.494Z,11.70
2018-09-23T04:51:43.811Z,11.70
2018-09-23T04:54:12.154Z,11.70
2018-09-23T04:56:40.480Z,11.70
2018-09-23T04:59:08.776Z,11.70
2018-09-23T05:01:37.134Z,11.70
2018-09-23T05:04:05.518Z,11.70
2018-09-23T05:06:33.792Z,11.70
2018-09-23T05:09:02.140Z,11.70
2018-09-23T05:11:30.458Z,11.70
2018-09-23T05:13:59.725Z,11.70
2018-09-23T05:16:28.013Z,11.80
2018-09-23T05:18:56.644Z,11.80
2018-09-23T05:21:25.593Z,11.80
2018-09-23T05:23:54.944Z,11.80
2018-09-23T05:26:24.622Z,11.80
2018-09-23T05:28:56.434Z,11.70
2018-09-23T05:31:24.982Z,11.70
2018-09-23T05:33:53.677Z,11.80
2018-09-23T05:36:22.227Z,11.80
2018-09-23T05:38:50.794Z,11.70
2018-09-23T05:41:19.372Z,11.80
2018-09-23T05:43:47.872Z,11.80
2018-09-23T05:46:16.567Z,11.80
2018-09-23T05:48:45.443Z,11.80
2018-09-23T05:51:14.032Z,11.80
2018-09-23T05:53:43.972Z,11.80
2018-09-23T05:56:12.453Z,11.80
2018-09-23T05:58:43.689Z,11.90
2018-09-23T06:01:12.369Z,11.90
2018-09-23T06:03:43.743Z,11.90
2018-09-23T06:06:14.499Z,11.90
2018-09-23T06:08:45.280Z,11.90
2018-09-23T06:11:19.649Z,11.80
2018-09-23T06:13:50.414Z,11.90
2018-09-23T06:16:23.278Z,11.90
2018-09-23T06:18:56.850Z,12.00
2018-09-23T06:21:26.740Z,12.00
2018-09-23T06:23:58.071Z,11.90
2018-09-23T06:26:33.826Z,12.00
2018-09-23T06:29:14.116Z,12.00
2018-09-23T06:31:48.554Z,12.10
2018-09-23T06:34:22.614Z,12.10
2018-09-23T06:36:57.498Z,12.10
2018-09-23T06:39:29.296Z,12.10
2018-09-23T06:44:41.341Z,12.20
2018-09-23T06:47:16.527Z,12.30
2018-09-23T06:49:48.639Z,12.30
2018-09-23T06:52:18.261Z,12.30
2018-09-23T06:54:46.716Z,12.20
2018-09-23T06:57:15.066Z,12.20
2018-09-23T06:59:43.429Z,12.20
2018-09-23T07:02:11.757Z,12.30
2018-09-23T07:04:41.248Z,12.30
2018-09-23T07:07:10.248Z,12.30
2018-09-23T07:09:44.323Z,12.40
2018-09-23T07:12:12.786Z,12.50
2018-09-23T07:14:41.660Z,12.60
2018-09-23T07:17:10.170Z,12.60
2018-09-23T07:19:41.249Z,12.50
2018-09-23T07:22:15.692Z,12.50
2018-09-23T07:24:47.134Z,12.60
2018-09-23T07:27:18.812Z,12.70
2018-09-23T07:29:51.281Z,12.70
2018-09-23T07:35:04.950Z,12.70
2018-09-23T07:40:12.990Z,12.70
2018-09-23T07:42:47.398Z,12.70
2018-09-23T07:45:22.301Z,12.80
2018-09-23T07:47:57.484Z,12.70
2018-09-23T07:50:27.783Z,12.70
2018-09-23T07:53:00.292Z,12.70
2018-09-23T07:55:36.146Z,12.70
2018-09-23T07:58:04.929Z,12.80
2018-09-23T08:00:33.461Z,12.70
2018-09-23T08:03:02.839Z,12.80
2018-09-23T08:05:31.421Z,12.80
2018-09-23T08:08:00.058Z,12.80
2018-09-23T08:10:28.498Z,12.90
2018-09-23T08:12:58.797Z,13.00
2018-09-23T08:15:28.293Z,13.00
2018-09-23T08:17:57.428Z,13.10
2018-09-23T08:20:25.966Z,13.10
2018-09-23T08:22:54.286Z,13.20
2018-09-23T08:25:25.350Z,13.30
2018-09-23T08:27:57.931Z,13.30
2018-09-23T08:30:34.279Z,13.20
2018-09-23T08:33:04.926Z,13.30
2018-09-23T08:35:37.257Z,13.30
2018-09-23T08:38:12.488Z,13.30
2018-09-23T08:40:46.193Z,13.40
2018-09-23T08:43:19.633Z,13.40
2018-09-23T08:45:50.751Z,13.40
2018-09-23T08:48:21.280Z,13.40
2018-09-23T08:50:54.803Z,13.50
2018-09-23T08:53:23.204Z,13.50
2018-09-23T08:55:51.525Z,13.50
2018-09-23T08:58:19.837Z,13.60
2018-09-23T09:00:48.152Z,13.60
2018-09-23T09:03:16.541Z,13.70
2018-09-23T09:05:44.888Z,13.80
2018-09-23T09:08:13.280Z,13.80
2018-09-23T09:10:41.581Z,13.70
2018-09-23T09:13:10.645Z,13.60
2018-09-23T09:15:38.956Z,13.60
2018-09-23T09:18:07.343Z,13.80
2018-09-23T09:20:36.118Z,13.90
2018-09-23T09:23:04.415Z,14.00
2018-09-23T09:25:32.724Z,13.90
2018-09-23T09:28:01.075Z,13.80
2018-09-23T09:30:29.421Z,13.90
2018-09-23T09:32:57.723Z,14.00
2018-09-23T09:35:26.264Z,14.00
2018-09-23T09:37:54.517Z,14.10
2018-09-23T09:40:22.844Z,14.00
2018-09-23T09:42:51.177Z,14.00
2018-09-23T09:45:19.499Z,14.00
2018-09-23T09:47:47.875Z,14.00
2018-09-23T09:50:16.253Z,14.00
2018-09-23T09:52:44.582Z,14.00
2018-09-23T09:55:12.960Z,14.20
2018-09-23T09:57:41.217Z,14.30
2018-09-23T10:00:09.569Z,14.30
2018-09-23T10:02:37.985Z,14.10
2018-09-23T10:05:07.184Z,14.10
2018-09-23T10:07:36.302Z,14.30
2018-09-23T10:10:04.768Z,14.40
2018-09-23T10:12:34.405Z,14.60
2018-09-23T10:15:02.798Z,14.70
2018-09-23T10:17:32.406Z,14.40
2018-09-23T10:20:01.370Z,14.30
2018-09-23T10:22:31.811Z,14.40
2018-09-23T10:25:00.284Z,14.30
2018-09-23T10:27:28.612Z,14.30
2018-09-23T10:29:57.059Z,14.30
2018-09-23T10:32:26.383Z,14.30
2018-09-23T10:34:56.012Z,14.20
2018-09-23T10:37:25.280Z,14.20
2018-09-23T10:39:54.373Z,14.20
2018-09-23T10:42:23.346Z,14.20
2018-09-23T10:44:51.699Z,14.20
2018-09-23T10:47:20.055Z,14.20
2018-09-23T10:49:50.233Z,14.20
2018-09-23T10:52:19.607Z,13.90
2018-09-23T10:54:48.863Z,13.70
2018-09-23T10:57:17.882Z,13.60
2018-09-23T10:59:46.285Z,13.40
2018-09-23T11:02:15.920Z,13.30
2018-09-23T11:04:45.115Z,13.20
2018-09-23T11:07:13.480Z,13.30
2018-09-23T11:09:42.512Z,13.10
2018-09-23T11:12:10.890Z,13.20
2018-09-23T11:14:39.225Z,13.20
2018-09-23T11:17:07.553Z,13.20
2018-09-23T11:19:35.898Z,13.30
2018-09-23T11:22:04.249Z,13.30
2018-09-23T11:24:32.665Z,13.20
2018-09-23T11:27:00.987Z,13.20
2018-09-23T11:29:29.361Z,13.30
2018-09-23T11:31:57.796Z,13.30
2018-09-23T11:34:26.113Z,13.30
2018-09-23T11:36:54.511Z,13.30
2018-09-23T11:39:23.176Z,13.20
2018-09-23T11:41:52.605Z,13.30
2018-09-23T11:44:21.062Z,13.20
2018-09-23T11:46:49.376Z,13.30
2018-09-23T11:49:19.224Z,13.30
2018-09-23T11:51:47.599Z,13.20
2018-09-23T11:54:15.904Z,13.20
2018-09-23T11:56:44.312Z,13.10
2018-09-23T11:59:12.657Z,13.00
2018-09-23T12:01:41.070Z,12.90
2018-09-23T12:04:09.416Z,12.70
2018-09-23T12:06:37.723Z,12.70
2018-09-23T12:09:08.445Z,12.70
2018-09-23T12:11:36.854Z,12.60
2018-09-23T12:14:05.206Z,12.50
2018-09-23T12:16:34.146Z,12.50
2018-09-23T12:19:02.501Z,12.60
2018-09-23T12:21:30.823Z,12.50
2018-09-23T12:23:59.145Z,12.50
2018-09-23T12:26:27.533Z,12.40
2018-09-23T12:28:55.925Z,12.40
2018-09-23T12:31:24.241Z,12.40
2018-09-23T12:33:52.681Z,12.40
2018-09-23T12:36:21.005Z,12.30
2018-09-23T12:38:49.363Z,12.30
2018-09-23T12:41:17.760Z,12.20
2018-09-23T12:43:46.072Z,12.10
2018-09-23T12:46:14.445Z,12.10
2018-09-23T12:48:42.770Z,12.10
2018-09-23T12:51:11.131Z,12.10
2018-09-23T12:53:39.441Z,12.00
2018-09-23T12:56:07.781Z,11.90
2018-09-23T12:58:36.101Z,11.90
2018-09-23T13:01:04.419Z,11.90
2018-09-23T13:03:32.829Z,11.90
2018-09-23T13:06:01.356Z,11.90
2018-09-23T13:08:29.705Z,11.90
2018-09-23T13:10:58.025Z,11.90
2018-09-23T13:13:26.356Z,11.70
2018-09-23T13:15:54.698Z,11.70
2018-09-23T13:18:25.714Z,11.70
2018-09-23T13:20:53.980Z,11.70
2018-09-23T13:23:25.424Z,11.70
2018-09-23T13:25:53.829Z,11.90
2018-09-23T13:28:22.139Z,12.00
2018-09-23T13:30:51.979Z,12.00
2018-09-23T13:33:20.455Z,11.90
2018-09-23T13:35:48.776Z,12.10
2018-09-23T13:38:17.236Z,12.10
2018-09-23T13:40:45.615Z,12.10
2018-09-23T13:43:14.132Z,12.10
2018-09-23T13:45:43.246Z,12.10
2018-09-23T13:48:12.271Z,12.20
2018-09-23T13:50:42.641Z,12.10
2018-09-23T13:53:11.018Z,12.20
2018-09-23T13:55:39.329Z,12.00
2018-09-23T13:58:07.764Z,12.00
2018-09-23T14:00:36.115Z,12.00
2018-09-23T14:03:04.451Z,12.00
2018-09-23T14:05:32.849Z,11.90
2018-09-23T14:08:01.206Z,11.90
2018-09-23T14:10:29.545Z,11.80
2018-09-23T14:12:57.867Z,11.90
2018-09-23T14:15:26.266Z,11.70
2018-09-23T14:17:54.618Z,11.60
2018-09-23T14:20:23.189Z,11.60
2018-09-23T14:22:51.525Z,11.50
2018-09-23T14:25:19.918Z,11.50
2018-09-23T14:27:49.084Z,11.40
2018-09-23T14:30:17.426Z,11.30
2018-09-23T14:32:45.788Z,11.40
2018-09-23T14:35:14.241Z,11.30
2018-09-23T14:37:42.561Z,11.30
2018-09-23T14:40:10.925Z,11.30
2018-09-23T14:42:39.258Z,11.30
2018-09-23T14:45:07.665Z,11.30
2018-09-23T14:47:35.973Z,11.30
2018-09-23T14:50:04.546Z,11.30
2018-09-23T14:52:33.693Z,11.30
2018-09-23T14:55:02.084Z,11.40
2018-09-23T14:57:30.406Z,11.30
2018-09-23T15:00:03.067Z,11.30
2018-09-23T15:02:27.636Z,11.30
2018-09-23T15:04:57.825Z,11.30
2018-09-23T15:07:26.920Z,11.20
2018-09-23T15:09:56.188Z,11.20
2018-09-23T15:12:25.222Z,11.20
2018-09-23T15:14:59.236Z,11.20
2018-09-23T15:17:27.645Z,11.20
2018-09-23T15:19:56.325Z,11.10
2018-09-23T15:22:24.774Z,11.10
2018-09-23T15:24:54.165Z,11.00
2018-09-23T15:27:22.578Z,11.00
2018-09-23T15:29:51.708Z,11.00
2018-09-23T15:32:23.921Z,11.00
2018-09-23T15:34:55.384Z,10.90
2018-09-23T15:37:24.117Z,11.00
2018-09-23T15:39:52.450Z,11.00
2018-09-23T15:42:20.890Z,11.00
2018-09-23T15:44:49.209Z,11.00
2018-09-23T15:47:17.552Z,11.10
2018-09-23T15:49:45.932Z,11.10
2018-09-23T15:52:15.073Z,11.00
2018-09-23T15:54:43.798Z,11.00
2018-09-23T15:57:12.119Z,11.00
2018-09-23T15:59:49.806Z,11.00
2018-09-23T16:02:18.858Z,11.00
2018-09-23T16:04:50.187Z,10.90
2018-09-23T16:07:18.825Z,10.90
2018-09-23T16:09:47.512Z,10.80
2018-09-23T16:12:16.045Z,10.70
2018-09-23T16:14:44.493Z,10.70
2018-09-23T16:17:12.854Z,10.70
2018-09-23T16:19:41.288Z,10.60
2018-09-23T16:22:10.057Z,10.70
2018-09-23T16:24:38.464Z,10.70
2018-09-23T16:27:06.896Z,10.70
2018-09-23T16:29:35.296Z,10.60
2018-09-23T16:32:03.691Z,10.70
2018-09-23T16:34:32.004Z,10.70
2018-09-23T16:37:00.327Z,10.70
2018-09-23T16:39:28.737Z,10.70
2018-09-23T16:41:57.140Z,10.60
2018-09-23T16:44:25.643Z,10.50
2018-09-23T16:46:54.693Z,10.40
2018-09-23T16:49:24.218Z,10.40
2018-09-23T16:51:53.951Z,10.30
2018-09-23T16:54:22.596Z,10.20
2018-09-23T16:56:52.052Z,10.20
2018-09-23T16:59:20.574Z,10.10
2018-09-23T17:01:50.375Z,10.10
2018-09-23T17:04:20.282Z,10.00
2018-09-23T17:06:48.721Z,9.90
2018-09-23T17:09:19.032Z,9.80
2018-09-23T17:11:47.405Z,9.70
2018-09-23T17:14:15.840Z,9.70
2018-09-23T17:16:45.790Z,9.70
2018-09-23T17:19:14.184Z,9.60
2018-09-23T17:21:43.125Z,9.60
2018-09-23T17:24:12.482Z,9.60
2018-09-23T17:26:40.875Z,9.60
2018-09-23T17:29:09.598Z,9.60
2018-09-23T17:31:38.762Z,9.60
2018-09-23T17:34:07.396Z,9.50
2018-09-23T17:36:35.738Z,9.50
2018-09-23T17:39:06.301Z,9.50
2018-09-23T17:41:34.970Z,9.50
2018-09-23T17:44:03.358Z,9.40
2018-09-23T17:46:31.718Z,9.40
2018-09-23T17:49:00.013Z,9.40
2018-09-23T17:51:28.365Z,9.40
2018-09-23T17:53:56.732Z,9.40
2018-09-23T17:56:25.668Z,9.40
2018-09-23T17:58:54.373Z,9.40
2018-09-23T18:01:23.484Z,9.40
2018-09-23T18:03:52.989Z,9.40
2018-09-23T18:06:22.492Z,9.40
2018-09-23T18:08:50.885Z,9.40
2018-09-23T18:11:23.045Z,9.40
2018-09-23T18:13:57.690Z,9.40
2018-09-23T18:16:30.701Z,9.40
2018-09-23T18:19:07.741Z,9.40
2018-09-23T18:21:46.841Z,9.40
2018-09-23T18:24:20.850Z,9.40
2018-09-23T18:26:57.030Z,9.40
2018-09-23T18:29:37.148Z,9.40
2018-09-23T18:32:14.442Z,9.50
2018-09-23T18:34:46.829Z,9.50
2018-09-23T18:37:20.541Z,9.40
2018-09-23T18:39:53.960Z,9.50
2018-09-23T18:42:27.035Z,9.50
2018-09-23T18:45:00.051Z,9.40
2018-09-23T18:47:44.735Z,9.50
2018-09-23T18:50:17.698Z,9.50
2018-09-23T18:52:57.563Z,9.50
2018-09-23T18:55:33.360Z,9.50
2018-09-23T18:58:07.715Z,9.50
2018-09-23T19:00:40.606Z,9.40
2018-09-23T19:03:09.577Z,9.40
2018-09-23T19:05:37.985Z,9.40
2018-09-23T19:08:06.305Z,9.40
2018-09-23T19:10:34.733Z,9.40
2018-09-23T19:14:07.429Z,9.40
2018-09-23T19:16:36.026Z,9.40
2018-09-23T19:19:04.363Z,9.30
2018-09-23T19:21:32.698Z,9.30
2018-09-23T19:24:01.002Z,9.30
2018-09-23T19:26:29.867Z,9.30
2018-09-23T19:29:03.993Z,9.30
2018-09-23T19:31:32.353Z,9.30
2018-09-23T19:34:00.679Z,9.20
2018-09-23T19:36:29.033Z,9.20
2018-09-23T19:39:00.951Z,9.20
2018-09-23T19:41:34.828Z,9.30
2018-09-23T19:44:09.357Z,9.20
2018-09-23T19:46:42.933Z,9.20
2018-09-23T19:49:21.715Z,9.30
2018-09-23T19:51:56.074Z,9.20
2018-09-23T19:54:28.613Z,9.30
2018-09-23T19:57:04.176Z,9.20
2018-09-23T19:59:37.330Z,9.20
2018-09-23T20:02:08.379Z,9.20
2018-09-23T20:04:38.856Z,9.20
2018-09-23T20:07:08.500Z,9.30
2018-09-23T20:09:36.785Z,9.20
2018-09-23T20:12:05.151Z,9.30
2018-09-23T20:14:33.529Z,9.30
2018-09-23T20:17:01.908Z,9.30
2018-09-23T20:19:30.453Z,9.30
2018-09-23T20:21:58.813Z,9.30
2018-09-23T20:24:27.204Z,9.30
2018-09-23T20:26:55.602Z,9.30
2018-09-23T20:29:24.992Z,9.40
2018-09-23T20:31:54.005Z,9.40
2018-09-23T20:34:22.341Z,9.40
2018-09-23T20:36:50.661Z,9.40
2018-09-23T20:39:19.045Z,9.40
2018-09-23T20:41:47.360Z,9.40
2018-09-23T20:44:15.720Z,9.40
2018-09-23T20:46:44.052Z,9.40
2018-09-23T20:49:12.376Z,9.40
2018-09-23T20:51:42.372Z,9.40
2018-09-23T20:54:16.530Z,9.40
2018-09-23T20:56:44.974Z,9.40
2018-09-23T20:59:18.811Z,9.40
2018-09-23T21:01:47.226Z,9.40
2018-09-23T21:04:16.259Z,9.40
2018-09-23T21:06:45.301Z,9.40
2018-09-23T21:09:13.640Z,9.40
2018-09-23T21:11:42.016Z,9.50
2018-09-23T21:14:10.510Z,9.40
2018-09-23T21:16:38.828Z,9.40
2018-09-23T21:19:07.201Z,9.40
2018-09-23T21:21:35.544Z,9.40
2018-09-23T21:24:03.875Z,9.40
2018-09-23T21:26:32.192Z,9.40
2018-09-23T21:29:00.537Z,9.30
2018-09-23T21:31:28.919Z,9.30
2018-09-23T21:33:57.224Z,9.30
2018-09-23T21:36:26.026Z,9.30
2018-09-23T21:38:54.377Z,9.30
2018-09-23T21:41:22.702Z,9.30
2018-09-23T21:43:55.545Z,9.20
2018-09-23T21:46:23.902Z,9.30
2018-09-23T21:48:52.207Z,9.20
2018-09-23T21:51:20.527Z,9.30
2018-09-23T21:53:48.854Z,9.30
2018-09-23T21:56:18.195Z,9.20
2018-09-23T21:58:46.519Z,9.20
2018-09-23T22:01:14.875Z,9.20
2018-09-23T22:03:43.233Z,9.20
2018-09-23T22:06:11.596Z,9.10
2018-09-23T22:08:39.932Z,9.10
2018-09-23T22:11:08.233Z,9.20
2018-09-23T22:13:36.556Z,9.10
2018-09-23T22:16:04.941Z,9.10
2018-09-23T22:18:33.349Z,9.10
2018-09-23T22:21:01.708Z,9.10
2018-09-23T22:23:30.057Z,9.00
2018-09-23T22:25:58.364Z,9.00
2018-09-23T22:28:26.753Z,9.00
2018-09-23T22:30:55.276Z,9.00
2018-09-23T22:33:23.613Z,9.00
2018-09-23T22:35:51.954Z,9.00
2018-09-23T22:38:20.269Z,9.00
2018-09-23T22:40:49.124Z,9.00
2018-09-23T22:43:17.433Z,9.00
2018-09-23T22:45:45.808Z,9.00
2018-09-23T22:48:14.148Z,9.00
2018-09-23T22:50:42.465Z,9.00
2018-09-23T22:53:10.861Z,9.00
2018-09-23T22:55:39.197Z,8.90
2018-09-23T22:58:07.556Z,9.00
2018-09-23T23:00:35.897Z,8.90
2018-09-23T23:03:04.270Z,9.00
2018-09-23T23:05:32.573Z,8.90
2018-09-23T23:08:00.889Z,8.90
2018-09-23T23:10:29.204Z,8.90
2018-09-23T23:12:57.519Z,8.90
2018-09-23T23:15:25.851Z,8.90
2018-09-23T23:17:54.169Z,8.90
2018-09-23T23:20:22.477Z,8.90
2018-09-23T23:22:50.853Z,8.90
2018-09-23T23:25:19.180Z,8.90
2018-09-23T23:27:47.484Z,8.90
2018-09-23T23:30:15.808Z,8.80
2018-09-23T23:32:44.177Z,8.80
2018-09-23T23:35:12.505Z,8.80
2018-09-23T23:37:40.825Z,8.80
2018-09-23T23:40:09.256Z,8.80
2018-09-23T23:42:37.554Z,8.80
2018-09-23T23:45:05.915Z,8.80
2018-09-23T23:47:35.217Z,8.80
2018-09-23T23:50:03.585Z,8.70
2018-09-23T23:52:31.940Z,8.70
2018-09-23T23:55:00.247Z,8.80
2018-09-23T23:57:28.565Z,8.80
2018-09-23T23:59:56.913Z,8.80
